Time;durP1;ratioP1;P1;durP2;ratioP2;P2;SDS_P1;SDS_P2;PMS_P1;PMS_P2;Temp;Humidity;BMP_temperature;BMP_pressure;BME280_temperature;BME280_humidity;BME280_pressure;Samples;Min_cycle;Max_cycle;Signal;HPM_P1;HPM_P2
2021/07/15 00:00:08;;;;;;;4.60;1.30;;;14.50;99.90;;;;;;4857042;29;20040;-75
2021/07/15 00:02:34;;;;;;;5.00;1.52;;;14.30;99.90;;;;;;4857648;29;20041;-75
2021/07/15 00:05:00;;;;;;;2.15;1.40;;;14.20;99.90;;;;;;4855140;29;20044;-76
2021/07/15 00:07:26;;;;;;;3.47;1.38;;;14.20;99.90;;;;;;4856655;29;20042;-75
2021/07/15 00:09:51;;;;;;;3.40;1.50;;;14.40;99.90;;;;;;4854387;29;20053;-74
2021/07/15 00:12:17;;;;;;;2.63;1.20;;;14.30;99.90;;;;;;4840861;29;20049;-75
2021/07/15 00:14:43;;;;;;;2.72;1.40;;;14.40;99.90;;;;;;4856432;29;20640;-75
2021/07/15 00:17:09;;;;;;;4.47;1.20;;;14.40;99.90;;;;;;4860087;29;20396;-75
2021/07/15 00:19:35;;;;;;;1.88;1.08;;;14.40;99.90;;;;;;4858999;29;20050;-75
2021/07/15 00:22:02;;;;;;;5.72;1.38;;;14.40;99.90;;;;;;4861110;29;20041;-74
2021/07/15 00:24:28;;;;;;;10.23;1.50;;;14.50;99.90;;;;;;4861187;29;20068;-75
2021/07/15 00:26:54;;;;;;;3.25;1.38;;;14.40;99.90;;;;;;4860735;29;20523;-75
2021/07/15 00:29:21;;;;;;;4.32;1.30;;;14.40;99.90;;;;;;4858201;29;20046;-75
2021/07/15 00:31:47;;;;;;;5.45;1.40;;;14.40;99.90;;;;;;4859875;29;20069;-75
2021/07/15 00:34:13;;;;;;;5.22;1.38;;;14.50;99.90;;;;;;4861532;29;20076;-76
2021/07/15 00:36:39;;;;;;;3.72;1.42;;;14.40;99.90;;;;;;4855774;29;20072;-75
2021/07/15 00:39:06;;;;;;;3.15;1.38;;;14.40;99.90;;;;;;4848933;29;20058;-75
2021/07/15 00:41:33;;;;;;;4.05;1.42;;;14.40;99.90;;;;;;4862599;29;20041;-75
2021/07/15 00:43:58;;;;;;;3.85;1.35;;;14.40;99.90;;;;;;4848649;29;20043;-75
2021/07/15 00:46:24;;;;;;;2.78;1.20;;;14.40;99.90;;;;;;4858637;29;20057;-75
2021/07/15 00:48:50;;;;;;;3.92;1.67;;;14.50;99.90;;;;;;4858396;29;20053;-75
2021/07/15 00:51:16;;;;;;;3.78;1.13;;;14.70;99.90;;;;;;4861343;29;20040;-74
2021/07/15 00:53:43;;;;;;;5.43;1.42;;;14.70;99.90;;;;;;4859055;29;20143;-74
2021/07/15 00:56:10;;;;;;;3.67;1.58;;;14.80;99.90;;;;;;4849964;29;20037;-74
2021/07/15 00:58:36;;;;;;;4.57;1.48;;;14.90;99.90;;;;;;4859133;29;20041;-74
2021/07/15 01:01:03;;;;;;;3.67;1.60;;;14.90;99.90;;;;;;4858350;29;20041;-75
2021/07/15 01:03:29;;;;;;;4.35;1.10;;;14.90;99.90;;;;;;4859229;29;20529;-75
2021/07/15 01:05:56;;;;;;;2.53;1.27;;;14.90;99.90;;;;;;4857384;29;20568;-75
2021/07/15 01:08:23;;;;;;;2.38;1.20;;;14.80;99.90;;;;;;4861449;29;20378;-74
2021/07/15 01:10:52;;;;;;;5.03;1.42;;;14.60;99.90;;;;;;4861169;29;20108;-75
2021/07/15 01:13:39;;;;;;;6.13;1.35;;;14.60;99.90;;;;;;4861104;29;20038;-75
2021/07/15 01:16:12;;;;;;;3.28;1.40;;;14.70;99.90;;;;;;4856332;29;20093;-75
2021/07/15 01:19:01;;;;;;;4.90;1.20;;;14.90;99.90;;;;;;4859789;29;20071;-75
2021/07/15 01:21:50;;;;;;;5.55;1.45;;;14.80;99.90;;;;;;4861061;29;20037;-75
2021/07/15 01:24:53;;;;;;;4.53;1.58;;;14.90;99.90;;;;;;4859177;29;20036;-75
2021/07/15 01:27:46;;;;;;;4.47;1.20;;;15.00;99.90;;;;;;4859839;29;20049;-75
2021/07/15 01:30:38;;;;;;;2.83;1.45;;;15.00;99.90;;;;;;4851130;29;20386;-75
2021/07/15 01:33:18;;;;;;;4.15;1.38;;;15.00;99.90;;;;;;4840315;29;20408;-74
2021/07/15 01:35:56;;;;;;;2.67;1.27;;;15.00;99.90;;;;;;4858876;29;20461;-75
2021/07/15 01:38:25;;;;;;;3.42;1.33;;;15.00;99.90;;;;;;4859999;29;20552;-75
2021/07/15 01:41:06;;;;;;;5.13;1.30;;;15.00;99.90;;;;;;4856322;29;20045;-75
2021/07/15 01:43:40;;;;;;;3.58;1.70;;;14.90;99.90;;;;;;4854971;29;20453;-74
2021/07/15 01:46:06;;;;;;;2.55;1.45;;;14.90;99.90;;;;;;4849250;29;20038;-74
2021/07/15 01:48:32;;;;;;;2.70;1.63;;;15.00;99.90;;;;;;4841877;29;20127;-75
2021/07/15 01:50:59;;;;;;;2.50;1.20;;;15.00;99.90;;;;;;4860924;29;20046;-75
2021/07/15 01:53:25;;;;;;;6.35;1.58;;;15.00;99.90;;;;;;4859464;29;20049;-75
2021/07/15 01:55:55;;;;;;;3.25;1.38;;;15.00;99.90;;;;;;4857814;29;20551;-75
2021/07/15 01:58:24;;;;;;;2.63;1.10;;;14.90;99.90;;;;;;4850590;29;20064;-75
2021/07/15 02:00:51;;;;;;;2.35;1.20;;;14.90;99.90;;;;;;4859264;29;20045;-75
2021/07/15 02:03:18;;;;;;;5.43;1.33;;;14.80;99.90;;;;;;4855327;29;20044;-75
2021/07/15 02:05:46;;;;;;;2.10;1.00;;;14.90;99.90;;;;;;4842567;29;20049;-75
2021/07/15 02:08:13;;;;;;;4.57;1.42;;;14.80;99.90;;;;;;4857449;29;20042;-75
2021/07/15 02:10:41;;;;;;;4.47;1.50;;;14.90;99.90;;;;;;4858897;29;20750;-75
2021/07/15 02:13:10;;;;;;;2.30;1.35;;;15.00;99.90;;;;;;4855475;29;20562;-76
2021/07/15 02:15:38;;;;;;;3.80;1.75;;;15.00;99.90;;;;;;4858506;29;20069;-75
2021/07/15 02:18:08;;;;;;;3.45;1.42;;;15.00;99.90;;;;;;4860826;29;20045;-76
2021/07/15 02:20:34;;;;;;;2.58;1.20;;;14.90;99.90;;;;;;4859370;29;20067;-79
2021/07/15 02:23:00;;;;;;;2.70;1.17;;;15.00;99.90;;;;;;4856072;29;20500;-75
2021/07/15 02:25:27;;;;;;;2.08;1.08;;;14.90;99.90;;;;;;4859486;29;20045;-74
2021/07/15 02:27:54;;;;;;;2.75;1.33;;;14.90;99.90;;;;;;4857783;29;20042;-75
2021/07/15 02:30:21;;;;;;;2.97;1.33;;;14.80;99.90;;;;;;4854412;29;20046;-75
2021/07/15 02:33:00;;;;;;;4.07;1.20;;;15.00;99.90;;;;;;4856028;29;20025;-75
2021/07/15 02:35:32;;;;;;;2.25;1.15;;;14.90;99.90;;;;;;4850134;29;20041;-75
2021/07/15 02:38:00;;;;;;;4.70;1.42;;;14.90;99.90;;;;;;4843236;29;20042;-75
2021/07/15 02:40:26;;;;;;;4.20;1.17;;;14.90;99.90;;;;;;4856063;29;20042;-75
2021/07/15 02:42:52;;;;;;;6.05;1.38;;;15.00;99.90;;;;;;4857764;29;20504;-75
2021/07/15 02:45:20;;;;;;;2.17;1.13;;;15.00;99.90;;;;;;4850399;29;20130;-75
2021/07/15 02:47:47;;;;;;;2.72;1.35;;;15.00;99.90;;;;;;4852036;29;20378;-76
2021/07/15 02:50:16;;;;;;;3.00;1.15;;;15.00;99.90;;;;;;4858711;29;20051;-75
2021/07/15 02:52:43;;;;;;;2.88;1.60;;;15.00;99.90;;;;;;4857333;29;20041;-74
2021/07/15 02:55:11;;;;;;;2.38;1.20;;;15.00;99.90;;;;;;4857876;29;20038;-74
2021/07/15 02:58:08;;;;;;;2.72;1.35;;;15.00;99.90;;;;;;4853038;29;20044;-75
2021/07/15 03:00:39;;;;;;;23.33;2.72;;;15.00;99.90;;;;;;4857837;29;20037;-75
2021/07/15 03:03:19;;;;;;;2.35;1.20;;;14.90;99.90;;;;;;4848846;29;20598;-75
2021/07/15 03:06:10;;;;;;;3.53;1.15;;;14.80;99.90;;;;;;4847141;29;20038;-77
2021/07/15 03:08:53;;;;;;;3.53;1.15;;;14.70;99.90;;;;;;4847758;29;20042;-77
2021/07/15 03:11:20;;;;;;;2.67;1.30;;;14.70;99.90;;;;;;4846604;29;20041;-76
2021/07/15 03:13:48;;;;;;;5.50;1.42;;;14.70;99.90;;;;;;4849244;29;20116;-81
2021/07/15 03:16:15;;;;;;;2.35;1.52;;;14.70;99.90;;;;;;4846438;29;20033;-75
2021/07/15 03:18:45;;;;;;;4.25;1.30;;;14.80;99.90;;;;;;4842874;29;20046;-76
2021/07/15 03:21:12;;;;;;;2.58;1.13;;;14.80;99.90;;;;;;4843456;29;20041;-80
2021/07/15 03:23:40;;;;;;;6.03;1.20;;;14.80;99.90;;;;;;4839201;29;20064;-79
2021/07/15 03:26:07;;;;;;;2.45;1.30;;;14.80;99.90;;;;;;4838593;29;20086;-76
2021/07/15 03:28:36;;;;;;;4.25;1.60;;;14.60;99.90;;;;;;4850309;29;20377;-76
2021/07/15 03:31:15;;;;;;;3.83;1.40;;;14.70;99.90;;;;;;4834484;29;20385;-77
2021/07/15 03:33:41;;;;;;;4.22;1.20;;;14.70;99.90;;;;;;4839793;29;20048;-80
2021/07/15 03:36:08;;;;;;;2.63;1.20;;;14.60;99.90;;;;;;4849984;29;20076;-75
2021/07/15 03:38:38;;;;;;;1.83;0.93;;;14.50;99.90;;;;;;4848122;29;20045;-77
2021/07/15 03:41:09;;;;;;;2.70;1.60;;;14.40;99.90;;;;;;4850688;29;20033;-76
2021/07/15 03:43:36;;;;;;;4.07;1.00;;;14.40;99.90;;;;;;4849467;29;20196;-76
2021/07/15 03:46:05;;;;;;;4.65;1.25;;;14.50;99.90;;;;;;4851317;29;20184;-75
2021/07/15 03:48:32;;;;;;;4.63;1.23;;;14.60;99.90;;;;;;4851352;29;20110;-77
2021/07/15 03:51:00;;;;;;;1.80;1.10;;;14.70;99.90;;;;;;4853478;29;20125;-76
2021/07/15 03:53:27;;;;;;;2.22;1.10;;;14.80;99.90;;;;;;4855058;29;20038;-79
2021/07/15 03:55:54;;;;;;;3.30;0.95;;;14.70;99.90;;;;;;4855822;29;20029;-76
2021/07/15 03:58:21;;;;;;;5.47;1.35;;;14.80;99.90;;;;;;4846902;29;20061;-78
2021/07/15 04:00:49;;;;;;;5.95;1.33;;;14.80;99.90;;;;;;4854065;29;20076;-75
2021/07/15 04:03:18;;;;;;;2.33;0.95;;;14.90;99.90;;;;;;4849150;29;20045;-76
2021/07/15 04:05:44;;;;;;;5.13;1.70;;;14.90;99.90;;;;;;4853200;29;20052;-75
2021/07/15 04:08:13;;;;;;;3.13;1.40;;;15.00;99.90;;;;;;4851002;29;20038;-76
2021/07/15 04:10:41;;;;;;;4.10;1.10;;;15.10;99.90;;;;;;4851189;29;20053;-75
2021/07/15 04:13:08;;;;;;;4.03;1.63;;;15.20;99.90;;;;;;4853976;29;20696;-80
2021/07/15 04:16:08;;;;;;;3.70;2.05;;;15.20;99.90;;;;;;4852406;29;20041;-76
2021/07/15 04:18:38;;;;;;;4.88;1.27;;;15.10;99.90;;;;;;4849435;29;20467;-76
2021/07/15 04:21:14;;;;;;;1.98;0.85;;;15.10;99.90;;;;;;4853281;29;20041;-76
2021/07/15 04:23:41;;;;;;;4.90;1.10;;;15.20;99.90;;;;;;4854885;29;20045;-76
2021/07/15 04:26:07;;;;;;;3.72;1.20;;;15.30;99.90;;;;;;4844410;29;20041;-80
2021/07/15 04:28:34;;;;;;;3.13;1.10;;;15.10;99.90;;;;;;4852289;29;20090;-79
2021/07/15 04:31:14;;;;;;;2.60;1.02;;;15.10;99.90;;;;;;4845616;29;20037;-80
2021/07/15 04:33:40;;;;;;;3.17;1.02;;;15.10;99.90;;;;;;4854399;29;20049;-80
2021/07/15 04:36:07;;;;;;;3.50;1.10;;;15.10;99.90;;;;;;4854961;29;20041;-76
2021/07/15 04:38:33;;;;;;;6.63;1.30;;;15.20;99.90;;;;;;4851408;29;20085;-76
2021/07/15 04:41:00;;;;;;;4.47;1.30;;;15.10;99.90;;;;;;4853612;29;20037;-75
2021/07/15 04:43:28;;;;;;;2.20;1.00;;;15.00;99.90;;;;;;4854386;29;20049;-76
2021/07/15 04:45:55;;;;;;;4.50;1.30;;;15.10;99.90;;;;;;4854298;29;20050;-75
2021/07/15 04:48:21;;;;;;;2.33;1.00;;;15.10;99.90;;;;;;4852378;29;20191;-77
2021/07/15 04:50:48;;;;;;;3.92;1.45;;;15.00;99.90;;;;;;4853675;29;20136;-76
2021/07/15 04:53:19;;;;;;;2.20;1.33;;;15.00;99.90;;;;;;4853834;29;20050;-76
2021/07/15 04:55:46;;;;;;;1.95;0.85;;;14.90;99.90;;;;;;4855299;29;20534;-76
2021/07/15 04:58:14;;;;;;;2.63;1.10;;;14.90;99.90;;;;;;4844779;29;20041;-77
2021/07/15 05:00:40;;;;;;;3.03;1.13;;;14.90;99.90;;;;;;4835052;29;20136;-76
2021/07/15 05:03:31;;;;;;;3.30;1.02;;;14.80;99.90;;;;;;4851573;29;20036;-77
2021/07/15 05:06:01;;;;;;;3.15;1.13;;;14.70;99.90;;;;;;4836537;29;20709;-78
2021/07/15 05:08:27;;;;;;;4.30;1.40;;;14.80;99.90;;;;;;4850767;29;20120;-80
2021/07/15 05:10:54;;;;;;;3.80;1.33;;;14.70;99.90;;;;;;4848069;29;20061;-76
2021/07/15 05:13:20;;;;;;;4.68;1.33;;;14.60;99.90;;;;;;4851114;29;20038;-76
2021/07/15 05:15:50;;;;;;;2.72;1.40;;;14.70;99.90;;;;;;4851451;29;20049;-76
2021/07/15 05:18:16;;;;;;;2.85;1.30;;;14.80;99.90;;;;;;4853887;29;20679;-76
2021/07/15 05:20:43;;;;;;;4.10;1.20;;;14.90;99.90;;;;;;4835555;29;20049;-76
2021/07/15 05:23:08;;;;;;;2.67;1.33;;;14.80;99.90;;;;;;4846635;29;20034;-78
2021/07/15 05:25:35;;;;;;;3.92;1.35;;;14.80;99.90;;;;;;4856640;29;20049;-82
2021/07/15 05:28:01;;;;;;;3.40;1.23;;;14.80;99.90;;;;;;4854704;29;20049;-77
2021/07/15 05:30:27;;;;;;;2.10;0.98;;;14.90;99.90;;;;;;4854208;29;20058;-77
2021/07/15 05:32:53;;;;;;;2.22;1.33;;;14.90;99.90;;;;;;4849936;29;20189;-77
2021/07/15 05:35:18;;;;;;;4.03;1.00;;;15.00;99.90;;;;;;4857360;29;20041;-83
2021/07/15 05:37:44;;;;;;;4.13;1.70;;;15.00;99.90;;;;;;4858587;29;20076;-77
2021/07/15 05:40:11;;;;;;;3.28;1.30;;;15.10;99.90;;;;;;4854796;29;20120;-79
2021/07/15 05:42:37;;;;;;;4.63;1.58;;;15.20;99.90;;;;;;4854367;29;20044;-82
2021/07/15 05:45:06;;;;;;;3.38;1.23;;;15.20;99.90;;;;;;4853972;29;20037;-78
2021/07/15 05:47:32;;;;;;;2.97;1.35;;;15.00;99.90;;;;;;4853531;29;20049;-78
2021/07/15 05:49:58;;;;;;;4.75;1.23;;;14.80;99.90;;;;;;4852926;29;20060;-78
2021/07/15 05:52:23;;;;;;;3.13;1.42;;;14.80;99.90;;;;;;4836194;29;20117;-84
2021/07/15 05:54:50;;;;;;;5.45;1.90;;;14.90;99.90;;;;;;4834161;29;20049;-78
2021/07/15 05:57:18;;;;;;;4.95;1.50;;;14.80;99.90;;;;;;4852734;29;20086;-77
2021/07/15 05:59:44;;;;;;;2.65;1.35;;;14.90;99.90;;;;;;4841287;29;20046;-78
2021/07/15 06:02:12;;;;;;;2.78;1.10;;;15.00;99.90;;;;;;4842731;29;20053;-77
2021/07/15 06:04:37;;;;;;;2.45;1.27;;;15.10;99.90;;;;;;4851593;29;20140;-77
2021/07/15 06:07:03;;;;;;;3.90;1.38;;;15.20;99.90;;;;;;4852320;29;20132;-76
2021/07/15 06:09:29;;;;;;;5.40;1.63;;;15.20;99.90;;;;;;4851809;29;20088;-77
2021/07/15 06:11:55;;;;;;;2.60;1.48;;;15.30;99.90;;;;;;4850721;29;20077;-77
2021/07/15 06:14:20;;;;;;;4.30;1.70;;;15.40;99.90;;;;;;4852063;29;20049;-79
2021/07/15 06:16:46;;;;;;;3.22;1.52;;;15.60;99.90;;;;;;4850965;29;20045;-78
2021/07/15 06:19:12;;;;;;;3.33;1.50;;;15.60;99.90;;;;;;4852192;29;20045;-77
2021/07/15 06:21:37;;;;;;;4.47;1.90;;;15.70;99.90;;;;;;4852493;29;20076;-78
2021/07/15 06:24:03;;;;;;;3.30;1.23;;;15.50;99.90;;;;;;4853545;29;20069;-77
2021/07/15 06:26:29;;;;;;;6.13;1.50;;;15.50;99.90;;;;;;4851989;29;20488;-79
2021/07/15 06:28:55;;;;;;;3.95;1.77;;;15.40;99.90;;;;;;4852648;29;20053;-77
2021/07/15 06:31:21;;;;;;;3.28;1.38;;;15.30;99.90;;;;;;4851113;29;20052;-82
2021/07/15 06:33:46;;;;;;;3.47;2.17;;;15.40;99.90;;;;;;4853247;29;20116;-79
2021/07/15 06:36:12;;;;;;;2.72;1.15;;;15.40;99.90;;;;;;4852355;29;20034;-78
2021/07/15 06:38:38;;;;;;;4.60;1.42;;;15.30;99.90;;;;;;4852918;29;20077;-78
2021/07/15 06:41:07;;;;;;;2.55;1.40;;;15.30;99.90;;;;;;4851777;29;20121;-78
2021/07/15 06:43:33;;;;;;;2.17;1.15;;;15.40;99.90;;;;;;4852622;29;20051;-79
2021/07/15 06:45:59;;;;;;;2.63;1.48;;;15.30;99.90;;;;;;4853576;29;20044;-78
2021/07/15 06:48:26;;;;;;;3.88;1.52;;;15.20;99.90;;;;;;4852371;29;20092;-79
2021/07/15 06:50:52;;;;;;;2.17;1.10;;;15.30;99.90;;;;;;4851689;29;20061;-79
2021/07/15 06:53:17;;;;;;;3.78;1.60;;;15.30;99.90;;;;;;4852297;29;20501;-82
2021/07/15 06:55:43;;;;;;;2.50;1.30;;;15.20;99.90;;;;;;4853013;29;20516;-80
2021/07/15 06:58:10;;;;;;;3.17;1.38;;;15.20;99.90;;;;;;4853120;29;20125;-80
2021/07/15 07:00:36;;;;;;;3.63;1.77;;;15.20;99.90;;;;;;4832901;29;20042;-79
2021/07/15 07:03:02;;;;;;;5.68;1.55;;;15.20;99.90;;;;;;4852703;29;20570;-78
2021/07/15 07:05:28;;;;;;;3.33;1.52;;;15.40;99.90;;;;;;4849280;29;20053;-78
2021/07/15 07:07:54;;;;;;;3.90;1.88;;;15.50;99.90;;;;;;4851936;29;20575;-78
2021/07/15 07:10:20;;;;;;;3.17;1.60;;;15.60;99.90;;;;;;4834318;29;20561;-79
2021/07/15 07:12:46;;;;;;;4.18;1.65;;;15.70;99.90;;;;;;4847993;29;20041;-79
2021/07/15 07:15:15;;;;;;;3.22;1.58;;;15.80;99.90;;;;;;4850050;29;20045;-78
2021/07/15 07:17:41;;;;;;;3.08;1.48;;;15.70;99.90;;;;;;4849843;29;20046;-80
2021/07/15 07:20:08;;;;;;;2.72;1.50;;;15.80;99.90;;;;;;4853091;29;20041;-77
2021/07/15 07:22:35;;;;;;;5.45;1.52;;;15.70;99.90;;;;;;4851488;29;20064;-77
2021/07/15 07:25:00;;;;;;;2.83;1.40;;;15.80;99.90;;;;;;4850242;29;20533;-77
2021/07/15 07:27:27;;;;;;;4.93;1.92;;;16.00;99.90;;;;;;4851099;29;20041;-78
2021/07/15 07:29:53;;;;;;;2.97;1.75;;;15.90;99.90;;;;;;4851234;29;20049;-79
2021/07/15 07:32:19;;;;;;;8.95;1.90;;;16.00;99.90;;;;;;4851866;29;20048;-78
2021/07/15 07:34:45;;;;;;;4.00;1.92;;;16.20;99.90;;;;;;4852318;29;20108;-78
2021/07/15 07:37:10;;;;;;;6.10;1.63;;;17.10;99.90;;;;;;4851030;29;20038;-77
2021/07/15 07:39:36;;;;;;;5.65;2.20;;;17.80;99.90;;;;;;4853145;29;20042;-79
2021/07/15 07:42:02;;;;;;;5.70;2.15;;;17.70;99.90;;;;;;4851691;29;20048;-80
2021/07/15 07:44:27;;;;;;;6.63;1.98;;;17.60;99.90;;;;;;4851424;29;20037;-79
2021/07/15 07:46:53;;;;;;;2.90;1.42;;;17.20;99.90;;;;;;4849691;29;20596;-79
2021/07/15 07:49:19;;;;;;;4.38;1.70;;;17.10;99.90;;;;;;4852793;29;20457;-79
2021/07/15 07:51:45;;;;;;;4.78;1.50;;;18.00;99.90;;;;;;4851987;29;20536;-79
2021/07/15 07:54:11;;;;;;;4.50;1.50;;;19.90;99.90;;;;;;4833855;29;20045;-79
2021/07/15 07:56:36;;;;;;;10.02;1.70;;;20.60;99.90;;;;;;4851332;29;20049;-79
2021/07/15 07:59:03;;;;;;;3.40;1.80;;;21.00;99.90;;;;;;4851770;29;20049;-78
2021/07/15 08:01:29;;;;;;;5.65;1.60;;;20.40;99.90;;;;;;4849025;29;20076;-80
2021/07/15 08:03:56;;;;;;;2.63;1.55;;;20.10;99.90;;;;;;4850781;29;20108;-78
2021/07/15 08:06:22;;;;;;;4.10;1.63;;;19.30;99.90;;;;;;4843128;29;20038;-80
2021/07/15 08:08:51;;;;;;;2.80;1.60;;;19.20;99.90;;;;;;4850681;29;20052;-80
2021/07/15 08:11:17;;;;;;;4.03;2.10;;;19.20;99.90;;;;;;4849421;29;20591;-81
2021/07/15 08:13:42;;;;;;;4.60;1.52;;;19.60;99.90;;;;;;4850375;29;20049;-79
2021/07/15 08:16:08;;;;;;;3.17;1.58;;;19.60;99.90;;;;;;4849859;29;20496;-79
2021/07/15 08:18:34;;;;;;;4.47;1.48;;;19.00;99.90;;;;;;4849856;29;20060;-79
2021/07/15 08:21:00;;;;;;;3.72;1.48;;;18.50;99.90;;;;;;4851740;29;20125;-79
2021/07/15 08:23:26;;;;;;;3.28;1.80;;;18.20;99.90;;;;;;4852395;29;20477;-81
2021/07/15 08:25:56;;;;;;;3.80;1.80;;;18.20;99.90;;;;;;4851937;29;20038;-78
2021/07/15 08:28:22;;;;;;;5.95;1.77;;;18.40;99.90;;;;;;4851453;29;20048;-78
2021/07/15 08:30:48;;;;;;;2.80;1.52;;;18.30;99.90;;;;;;4851111;29;20049;-78
2021/07/15 08:33:13;;;;;;;3.47;1.40;;;18.40;99.90;;;;;;4852655;29;20129;-81
2021/07/15 08:35:39;;;;;;;4.95;1.58;;;18.50;99.90;;;;;;4854173;29;20186;-76
2021/07/15 08:38:05;;;;;;;2.88;1.63;;;18.60;99.90;;;;;;4853822;29;20613;-77
2021/07/15 08:40:31;;;;;;;5.28;1.90;;;18.90;99.90;;;;;;4855509;29;20049;-77
2021/07/15 08:42:56;;;;;;;3.30;1.77;;;18.90;99.90;;;;;;4852727;29;20048;-77
2021/07/15 08:45:22;;;;;;;2.67;1.20;;;19.10;99.90;;;;;;4837922;29;20073;-78
2021/07/15 08:47:49;;;;;;;3.75;1.73;;;19.10;99.90;;;;;;4853922;29;20068;-75
2021/07/15 08:50:18;;;;;;;2.20;1.20;;;18.80;99.90;;;;;;4855146;29;20045;-79
2021/07/15 08:52:45;;;;;;;2.67;1.30;;;19.00;99.90;;;;;;4852890;29;20060;-80
2021/07/15 08:57:41;;;;;;;3.67;1.75;;;19.10;99.90;;;;;;4850902;29;20038;-78
2021/07/15 09:00:12;;;;;;;3.25;1.48;;;19.20;99.90;;;;;;4855118;29;20080;-79
2021/07/15 09:02:41;;;;;;;2.22;1.23;;;19.10;99.90;;;;;;4844604;29;20489;-80
2021/07/15 09:05:09;;;;;;;6.03;1.50;;;19.00;99.90;;;;;;4854200;29;20041;-79
2021/07/15 09:07:38;;;;;;;4.25;1.60;;;19.10;99.90;;;;;;4851933;29;20049;-79
2021/07/15 09:10:04;;;;;;;2.83;1.35;;;19.10;99.90;;;;;;4836210;29;20053;-78
2021/07/15 09:12:30;;;;;;;2.15;1.20;;;19.20;99.90;;;;;;4850673;29;20117;-78
2021/07/15 09:14:56;;;;;;;3.58;1.42;;;19.30;99.90;;;;;;4849558;29;20128;-78
2021/07/15 09:17:30;;;;;;;2.20;1.08;;;19.70;99.90;;;;;;4847297;29;20116;-78
2021/07/15 09:19:56;;;;;;;3.05;1.27;;;19.60;99.90;;;;;;4853353;29;20065;-79
2021/07/15 09:22:22;;;;;;;6.82;1.30;;;19.30;99.90;;;;;;4852701;29;20045;-80
2021/07/15 09:24:48;;;;;;;2.83;1.60;;;19.60;99.90;;;;;;4853616;29;20404;-78
2021/07/15 09:27:25;;;;;;;4.55;1.40;;;19.90;99.90;;;;;;4853211;29;20046;-78
2021/07/15 09:30:14;;;;;;;2.38;1.02;;;19.70;99.90;;;;;;4850212;29;20045;-79
2021/07/15 09:32:59;;;;;;;3.70;1.10;;;19.80;99.90;;;;;;4850329;29;20046;-78
2021/07/15 09:35:36;;;;;;;3.17;1.35;;;20.00;99.90;;;;;;4837797;29;20058;-78
2021/07/15 09:38:20;;;;;;;8.05;1.60;;;20.20;99.90;;;;;;4843062;29;20373;-78
2021/07/15 09:40:52;;;;;;;8.73;1.92;;;20.30;99.90;;;;;;4852182;29;20161;-78
2021/07/15 09:43:25;;;;;;;6.15;1.60;;;20.50;99.90;;;;;;4851811;29;20135;-76
2021/07/15 09:45:55;;;;;;;2.67;1.20;;;20.50;99.90;;;;;;4846596;29;20570;-77
2021/07/15 09:48:26;;;;;;;3.58;1.05;;;20.20;99.90;;;;;;4851819;29;20041;-77
2021/07/15 09:50:55;;;;;;;2.30;1.10;;;20.00;99.90;;;;;;4853013;29;20077;-76
2021/07/15 09:53:53;;;;;;;3.90;1.27;;;20.10;99.90;;;;;;4849218;29;20061;-76
2021/07/15 09:56:19;;;;;;;3.58;1.20;;;20.30;99.90;;;;;;4849216;29;20591;-79
2021/07/15 09:58:47;;;;;;;3.72;1.17;;;20.30;99.90;;;;;;4849206;29;20033;-77
2021/07/15 10:01:15;;;;;;;3.05;1.20;;;20.30;99.90;;;;;;4852755;29;20049;-78
2021/07/15 10:03:42;;;;;;;3.67;1.10;;;20.40;99.90;;;;;;4851131;29;20041;-76
2021/07/15 10:06:09;;;;;;;2.67;1.30;;;20.40;99.90;;;;;;4852115;29;20106;-77
2021/07/15 10:08:37;;;;;;;4.55;1.30;;;20.50;99.90;;;;;;4852348;29;20048;-77
2021/07/15 10:11:22;;;;;;;5.80;1.30;;;20.60;99.90;;;;;;4851223;29;20061;-76
2021/07/15 10:14:09;;;;;;;2.85;1.50;;;20.40;99.90;;;;;;4849881;29;20469;-77
2021/07/15 10:16:36;;;;;;;2.85;1.10;;;20.40;99.90;;;;;;4851154;29;20070;-76
2021/07/15 10:19:04;;;;;;;2.80;1.55;;;20.30;99.90;;;;;;4852518;29;20045;-77
2021/07/15 10:21:32;;;;;;;5.93;1.13;;;20.50;99.90;;;;;;4849593;29;20057;-76
2021/07/15 10:24:02;;;;;;;2.75;1.50;;;20.40;99.90;;;;;;4852386;29;20069;-76
2021/07/15 10:26:28;;;;;;;4.25;1.23;;;20.40;99.90;;;;;;4853116;29;20045;-77
2021/07/15 10:28:55;;;;;;;3.03;0.88;;;20.40;99.90;;;;;;4853101;29;20112;-77
2021/07/15 10:31:22;;;;;;;4.13;1.35;;;20.40;99.90;;;;;;4852362;29;20542;-76
2021/07/15 10:33:48;;;;;;;4.03;1.20;;;20.60;99.90;;;;;;4852710;29;20080;-77
2021/07/15 10:36:14;;;;;;;3.50;1.05;;;20.80;99.90;;;;;;4853808;29;20068;-77
2021/07/15 10:38:42;;;;;;;3.33;1.17;;;20.90;99.90;;;;;;4853008;29;20601;-77
2021/07/15 10:41:10;;;;;;;2.60;1.30;;;20.90;99.90;;;;;;4852445;29;20045;-76
2021/07/15 10:43:37;;;;;;;2.75;1.35;;;21.20;99.90;;;;;;4851146;29;20098;-76
2021/07/15 10:46:05;;;;;;;6.15;1.30;;;21.40;99.90;;;;;;4852030;29;20045;-77
2021/07/15 10:48:33;;;;;;;3.03;1.10;;;21.30;99.90;;;;;;4853304;29;20548;-76
2021/07/15 10:51:00;;;;;;;2.85;1.23;;;21.20;99.90;;;;;;4851446;29;20089;-76
2021/07/15 10:53:29;;;;;;;3.03;1.35;;;21.20;99.90;;;;;;4850962;29;20037;-81
2021/07/15 10:55:55;;;;;;;2.28;1.00;;;21.50;99.90;;;;;;4853162;29;20030;-76
2021/07/15 10:58:44;;;;;;;2.38;1.13;;;21.70;99.90;;;;;;4852388;29;20042;-80
2021/07/15 11:01:36;;;;;;;5.22;1.20;;;21.70;99.00;;;;;;4852986;29;20072;-76
2021/07/15 11:04:12;;;;;;;2.25;0.90;;;21.80;99.30;;;;;;4838896;29;20036;-77
2021/07/15 11:06:48;;;;;;;3.25;1.23;;;21.50;98.80;;;;;;4843071;29;20053;-77
2021/07/15 11:09:23;;;;;;;2.88;1.15;;;21.70;98.00;;;;;;4850177;29;20045;-77
2021/07/15 11:11:49;;;;;;;2.20;0.90;;;22.00;97.40;;;;;;4850595;29;20053;-77
2021/07/15 11:14:46;;;;;;;5.47;0.98;;;22.10;96.60;;;;;;4848518;29;20037;-77
2021/07/15 11:17:25;;;;;;;3.08;0.90;;;22.20;96.70;;;;;;4850811;29;20034;-77
2021/07/15 11:19:59;;;;;;;2.38;1.20;;;22.50;97.10;;;;;;4851408;29;20042;-77
2021/07/15 11:22:52;;;;;;;3.83;1.17;;;22.60;96.60;;;;;;4850082;29;20049;-77
2021/07/15 11:25:36;;;;;;;2.72;1.30;;;22.80;96.70;;;;;;4851574;29;20041;-77
2021/07/15 11:28:10;;;;;;;2.28;0.90;;;22.80;96.40;;;;;;4852531;29;20045;-81
2021/07/15 11:30:36;;;;;;;2.33;1.30;;;22.80;95.40;;;;;;4851825;29;20054;-77
2021/07/15 11:33:22;;;;;;;1.48;0.90;;;23.10;96.70;;;;;;4851866;29;20052;-77
2021/07/15 11:35:54;;;;;;;3.03;0.98;;;23.70;96.60;;;;;;4851523;29;20492;-77
2021/07/15 11:38:30;;;;;;;4.10;1.10;;;23.50;96.20;;;;;;4851897;29;20052;-77
2021/07/15 11:41:23;;;;;;;2.10;1.20;;;24.00;97.10;;;;;;4851542;29;20068;-77
2021/07/15 11:43:53;;;;;;;2.47;1.10;;;24.40;96.30;;;;;;4848775;29;20045;-77
2021/07/15 11:46:19;;;;;;;2.83;1.08;;;23.80;95.10;;;;;;4850423;29;20045;-77
2021/07/15 11:51:46;;;;;;;1.75;1.00;;;23.30;97.00;;;;;;4851087;29;20052;-76
2021/07/15 11:54:16;;;;;;;1.38;1.00;;;23.00;97.10;;;;;;4851647;29;20033;-77
2021/07/15 11:56:48;;;;;;;2.78;1.02;;;22.90;97.10;;;;;;4850634;29;20554;-78
2021/07/15 11:59:43;;;;;;;2.95;1.10;;;22.80;97.60;;;;;;4852574;29;20041;-77
2021/07/15 12:02:22;;;;;;;2.13;1.10;;;22.70;96.90;;;;;;4851090;29;20036;-78
2021/07/15 12:05:07;;;;;;;3.17;1.20;;;22.50;96.80;;;;;;4843363;29;20381;-77
2021/07/15 12:07:34;;;;;;;2.08;0.98;;;22.40;96.30;;;;;;4843880;29;20953;-77
2021/07/15 12:10:01;;;;;;;1.65;0.90;;;22.50;96.90;;;;;;4851783;29;20072;-78
2021/07/15 12:12:27;;;;;;;3.35;1.35;;;22.60;97.40;;;;;;4855006;29;20084;-79
2021/07/15 12:14:53;;;;;;;2.88;0.90;;;22.70;97.50;;;;;;4852615;29;20065;-78
2021/07/15 12:17:20;;;;;;;3.45;1.23;;;22.90;97.20;;;;;;4837492;29;20046;-78
2021/07/15 12:20:00;;;;;;;3.47;1.15;;;22.90;96.10;;;;;;4855647;29;20128;-78
2021/07/15 12:22:27;;;;;;;4.30;1.60;;;22.70;96.30;;;;;;4854493;29;20045;-78
2021/07/15 12:25:14;;;;;;;1.98;1.27;;;22.90;96.80;;;;;;4868371;29;20046;-79
2021/07/15 12:27:46;;;;;;;4.82;1.30;;;22.90;96.50;;;;;;4854521;29;20500;-77
2021/07/15 12:30:12;;;;;;;2.85;1.30;;;23.20;97.30;;;;;;4852381;29;20041;-79
2021/07/15 12:32:56;;;;;;;4.43;1.35;;;23.20;96.20;;;;;;4855128;29;20037;-79
2021/07/15 12:35:22;;;;;;;3.15;1.42;;;23.10;96.70;;;;;;4854817;29;20033;-78
2021/07/15 12:37:48;;;;;;;4.05;1.30;;;23.30;97.00;;;;;;4854185;29;20056;-78
2021/07/15 12:40:14;;;;;;;2.50;1.10;;;23.20;97.50;;;;;;4853557;29;20041;-82
2021/07/15 12:42:40;;;;;;;3.22;1.42;;;23.20;97.00;;;;;;4855284;29;20040;-83
2021/07/15 12:45:21;;;;;;;4.75;1.30;;;23.20;96.70;;;;;;4853358;29;20041;-79
2021/07/15 12:48:18;;;;;;;3.15;1.48;;;23.50;97.60;;;;;;4854213;29;20057;-77
2021/07/15 12:50:47;;;;;;;2.38;1.10;;;23.60;96.80;;;;;;4841915;29;20496;-83
2021/07/15 12:53:19;;;;;;;2.65;1.25;;;23.60;96.80;;;;;;4854140;29;20057;-79
2021/07/15 12:55:46;;;;;;;3.88;1.02;;;23.60;96.40;;;;;;4855198;29;20512;-77
2021/07/15 12:58:13;;;;;;;3.95;1.35;;;23.20;96.70;;;;;;4854665;29;20041;-78
2021/07/15 13:00:40;;;;;;;3.92;1.30;;;23.10;96.80;;;;;;4853322;29;20102;-78
2021/07/15 13:03:06;;;;;;;4.00;1.63;;;23.10;97.00;;;;;;4853520;29;20041;-77